Blue Diamond, NV (89004)

2:17 AM PST on December 28, 2014 (GMT -0800)
RAWS RED ROCK NV US | Change Station
CLOSE
Current Station
Personal Weather Station
Location: Blue Diamond, NV
Elevation: 3755 ft
Nearby Weather Stations

Elev 3755 ft 36.13 °N, 115.43 °W | Updated 43 minutes ago

Partly Cloudy
Partly Cloudy
25 °F
Feels Like 25 °F
N
3
Wind Variable Wind from West
Gusts 6.0 mph

Today
High -- | Low -- °F
--% Chance of Precip.
Yesterday
High -- | Low -- °F
Precip. -- in
6:51 AM 4:35 PM
Waxing Crescent, 46% visible
Pressure 30.29 in
Visibility 10.0 miles
Clouds Mostly Cloudy 9000 ft
Windchill 25 °F
Dew Point 12 °F
Humidity 57%
Rainfall 0.00 in
Snow Depth Not available.
UV 0 out of 12
Pollen 1.70 out of 12
Air Quality Not available.
Flu Activity Not available.
METAR KLAS 280956Z 20008KT 10SM BKN090 01/M12 A3027 RMK AO2 SLP255 T00111117

More Conditions Fewer Conditions

Pressure 30.29 in
Visibility 10.0 miles
Clouds Mostly Cloudy 9000 ft
Windchill 25 °F
Dew Point 12 °F
Humidity 57%
Rainfall 0.00 in
Snow Depth Not available.
UV 0 out of 12
Pollen 1.70 out of 12
Air Quality Not available.
Flu Activity Not available.
METAR KLAS 280956Z 20008KT 10SM BKN090 01/M12 A3027 RMK AO2 SLP255 T00111117

More Conditions Fewer Conditions

10-Day Weather Forecast

Almanac

Astronomy

Dec. 28, 2014 Rise Set
Actual Time
Civil Twilight
Nautical Twilight
Astronomical Twilight
Moon
Length of Visible Light
Length of Day
Tomorrow will be .
, % of the Moon is Illuminated

Today's Extremes

State Highs State Lows

Community

WunderPhotos

Upload Photos

1,781,207 photos uploaded!

WunderBlogs® & News

Nearby

Air Quality

  Air Quality AQ Index Pollutant
Not available.

Snow Depth

Station Depth Elevation

Earthquake Activity

City Distance Mag. Time & Date
Minimum magnitude displayed is 2.5.

Coastal Water Temperatures

Place Temperature

Nearby Weather Stations